createdAt,value
2022-12-18T00:00:42.945Z,102298.59
2022-12-18T00:05:49.798Z,102294.19
2022-12-18T00:10:53.320Z,102295.88
2022-12-18T00:16:03.622Z,102313.91
2022-12-18T00:21:08.952Z,102320.72
2022-12-18T00:26:13.736Z,102319.88
2022-12-18T00:31:20.371Z,102322.47
2022-12-18T00:36:25.695Z,102325.00
2022-12-18T00:41:46.818Z,102324.03
2022-12-18T00:46:51.690Z,102317.03
2022-12-18T00:51:57.829Z,102326.50
2022-12-18T00:57:01.241Z,102340.16
2022-12-18T01:02:06.152Z,102337.41
2022-12-18T01:07:09.622Z,102341.81
2022-12-18T01:12:13.206Z,102335.03
2022-12-18T01:17:17.984Z,102326.41
2022-12-18T01:22:21.383Z,102329.88
2022-12-18T01:27:24.853Z,102334.19
2022-12-18T01:32:31.809Z,102332.50
2022-12-18T01:37:35.197Z,102338.66
2022-12-18T01:42:40.007Z,102335.31
2022-12-18T01:47:47.701Z,102343.03
2022-12-18T01:52:54.225Z,102352.44
2022-12-18T01:58:00.214Z,102345.66
2022-12-18T02:03:05.179Z,102350.78
2022-12-18T02:08:13.006Z,102352.53
2022-12-18T02:13:22.398Z,102357.66
2022-12-18T02:18:30.747Z,102353.34
2022-12-18T02:23:47.168Z,102347.22
2022-12-18T02:28:55.651Z,102356.66
2022-12-18T02:34:02.593Z,102347.22
2022-12-18T02:39:11.656Z,102342.03
2022-12-18T02:44:22.243Z,102330.78
2022-12-18T02:49:34.345Z,102347.09
2022-12-18T02:54:47.619Z,102339.28
2022-12-18T02:59:59.018Z,102330.47
2022-12-18T03:05:07.528Z,102337.34
2022-12-18T03:10:14.154Z,102338.34
2022-12-18T03:15:21.777Z,102325.31
2022-12-18T03:20:33.937Z,102323.53
2022-12-18T03:25:40.603Z,102327.75
2022-12-18T03:30:47.831Z,102320.84
2022-12-18T03:35:51.873Z,102317.31
2022-12-18T03:41:01.315Z,102331.91
2022-12-18T03:46:11.821Z,102326.84
2022-12-18T03:51:19.760Z,102327.69
2022-12-18T03:56:27.693Z,102322.06
2022-12-18T04:01:36.023Z,102323.22
2022-12-18T04:06:40.551Z,102343.19
2022-12-18T04:11:48.121Z,102337.13
2022-12-18T04:16:54.642Z,102339.72
2022-12-18T04:22:03.786Z,102340.53
2022-12-18T04:27:13.593Z,102336.13
2022-12-18T04:32:22.667Z,102328.28
2022-12-18T04:37:26.815Z,102335.28
2022-12-18T04:42:30.354Z,102331.84
2022-12-18T04:47:35.117Z,102328.53
2022-12-18T04:52:39.653Z,102322.63
2022-12-18T04:57:43.188Z,102327.75
2022-12-18T05:02:47.986Z,102338.75
2022-12-18T05:07:51.574Z,102328.28
2022-12-18T05:13:01.285Z,102325.50
2022-12-18T05:18:06.908Z,102329.44
2022-12-18T05:23:10.355Z,102342.72
2022-12-18T05:28:13.783Z,102335.13
2022-12-18T05:33:18.586Z,102342.06
2022-12-18T05:38:22.561Z,102351.41
2022-12-18T05:43:27.009Z,102351.56
2022-12-18T05:48:31.822Z,102350.66
2022-12-18T05:53:35.743Z,102370.34
2022-12-18T05:58:39.581Z,102372.91
2022-12-18T06:03:45.102Z,102370.31
2022-12-18T06:08:49.326Z,102366.94
2022-12-18T06:13:57.819Z,102369.66
2022-12-18T06:19:05.370Z,102369.91
2022-12-18T06:24:09.032Z,102373.59
2022-12-18T06:29:12.532Z,102368.56
2022-12-18T06:34:17.409Z,102366.84
2022-12-18T06:39:20.877Z,102359.06
2022-12-18T06:44:24.265Z,102356.47
2022-12-18T06:49:30.782Z,102366.94
2022-12-18T06:54:34.294Z,102379.06
2022-12-18T06:59:37.698Z,102371.31
2022-12-18T07:04:42.794Z,102377.41
2022-12-18T07:09:46.225Z,102394.66
2022-12-18T07:14:49.676Z,102387.78
2022-12-18T07:19:54.511Z,102394.59
2022-12-18T07:24:58.065Z,102420.47
2022-12-18T07:30:01.404Z,102425.69
2022-12-18T07:35:06.889Z,102408.53
2022-12-18T07:40:11.632Z,102425.91
2022-12-18T07:45:14.952Z,102427.75
2022-12-18T07:50:19.959Z,102434.63
2022-12-18T07:55:23.383Z,102434.69
2022-12-18T08:00:26.794Z,102428.78
2022-12-18T08:05:31.650Z,102410.75
2022-12-18T08:10:35.089Z,102396.91
2022-12-18T08:15:38.473Z,102400.38
2022-12-18T08:20:46.212Z,102402.16
2022-12-18T08:25:49.745Z,102392.84
2022-12-18T08:30:54.028Z,102395.53
2022-12-18T08:36:00.247Z,102388.66
2022-12-18T08:41:04.717Z,102375.69
2022-12-18T08:46:08.671Z,102369.63
2022-12-18T08:51:13.664Z,102369.63
2022-12-18T08:56:17.243Z,102353.09
2022-12-18T09:01:20.989Z,102359.09
2022-12-18T09:06:27.501Z,102361.69
2022-12-18T09:11:31.433Z,102356.41
2022-12-18T09:16:35.840Z,102354.44
2022-12-18T09:21:46.103Z,102341.28
2022-12-18T09:26:57.800Z,102337.59
2022-12-18T09:32:01.573Z,102331.38
2022-12-18T09:37:06.346Z,102338.25
2022-12-18T09:42:15.151Z,102336.94
2022-12-18T09:47:22.363Z,102353.09
2022-12-18T09:52:30.760Z,102335.38
2022-12-18T09:57:35.782Z,102357.94
2022-12-18T10:02:39.643Z,102347.00
2022-12-18T10:07:55.373Z,102344.84
2022-12-18T10:13:05.500Z,102349.63
2022-12-18T10:18:22.094Z,102347.66
2022-12-18T10:23:30.546Z,102351.53
2022-12-18T10:28:35.768Z,102345.69
2022-12-18T10:33:39.370Z,102334.38
2022-12-18T10:38:44.843Z,102335.41
2022-12-18T10:43:48.330Z,102335.94
2022-12-18T10:48:57.052Z,102337.78
2022-12-18T10:54:03.496Z,102335.16
2022-12-18T10:59:10.989Z,102323.91
2022-12-18T11:04:19.458Z,102310.41
2022-12-18T11:09:25.520Z,102280.53
2022-12-18T11:14:30.748Z,102270.25
2022-12-18T11:19:36.372Z,102288.53
2022-12-18T11:24:41.511Z,102295.34
2022-12-18T11:29:46.898Z,102305.84
2022-12-18T11:34:57.350Z,102289.94
2022-12-18T11:40:10.069Z,102286.06
2022-12-18T11:45:27.004Z,102282.19
2022-12-18T11:50:34.990Z,102263.25
2022-12-18T11:55:43.885Z,102245.53
2022-12-18T12:00:53.046Z,102225.88
2022-12-18T12:06:04.771Z,102212.81
2022-12-18T12:11:13.592Z,102216.19
2022-12-18T12:16:19.938Z,102208.13
2022-12-18T12:21:27.760Z,102186.75
2022-12-18T12:26:37.308Z,102190.19
2022-12-18T12:31:52.253Z,102191.47
2022-12-18T12:37:06.338Z,102202.94
2022-12-18T12:42:34.182Z,102184.56
2022-12-18T12:47:40.478Z,102177.56
2022-12-18T12:52:46.514Z,102167.84
2022-12-18T12:58:00.092Z,102165.59
2022-12-18T13:03:08.608Z,102173.56
2022-12-18T13:08:14.007Z,102165.41
2022-12-18T13:13:24.383Z,102169.88
2022-12-18T13:18:30.031Z,102154.94
2022-12-18T13:23:35.730Z,102165.06
2022-12-18T13:28:57.844Z,102180.31
2022-12-18T13:34:26.162Z,102178.03
2022-12-18T13:39:35.901Z,102168.22
2022-12-18T13:44:43.002Z,102174.84
2022-12-18T13:49:46.605Z,102166.69
2022-12-18T13:54:53.840Z,102155.63
2022-12-18T13:59:59.610Z,102162.75
2022-12-18T14:05:03.204Z,102151.16
2022-12-18T14:10:47.680Z,102139.63
2022-12-18T14:15:42.981Z,102137.09
2022-12-18T14:20:52.972Z,102128.44
2022-12-18T14:26:00.794Z,102116.84
2022-12-18T14:31:19.740Z,102107.69
2022-12-18T14:36:24.970Z,102100.56
2022-12-18T14:41:28.814Z,102089.34
2022-12-18T14:46:36.123Z,102108.34
2022-12-18T14:51:39.551Z,102095.41
2022-12-18T14:56:46.643Z,102092.22
2022-12-18T15:02:05.119Z,102081.81
2022-12-18T15:07:16.956Z,102097.72
2022-12-18T15:12:28.605Z,102086.16
2022-12-18T15:17:33.704Z,102079.00
2022-12-18T15:22:38.051Z,102068.41
2022-12-18T15:27:50.470Z,102075.28
2022-12-18T15:33:18.957Z,102054.97
2022-12-18T15:38:22.298Z,102072.09
2022-12-18T15:43:38.881Z,102059.97
2022-12-18T15:48:45.593Z,102055.59
2022-12-18T15:53:49.664Z,102033.28
2022-12-18T15:58:53.028Z,102047.13
2022-12-18T16:03:58.416Z,102020.94
2022-12-18T16:09:01.909Z,102028.34
2022-12-18T16:14:06.674Z,102017.94
2022-12-18T16:19:12.068Z,102029.50
2022-12-18T16:24:17.102Z,102019.69
2022-12-18T16:29:27.821Z,102009.44
2022-12-18T16:34:36.063Z,101991.06
2022-12-18T16:39:40.560Z,101986.84
2022-12-18T16:44:44.595Z,101979.00
2022-12-18T16:49:51.753Z,101973.81
2022-12-18T16:54:55.352Z,101969.00
2022-12-18T17:00:04.711Z,101960.38
2022-12-18T17:05:10.696Z,101956.72
2022-12-18T17:10:15.347Z,101944.06
2022-12-18T17:15:29.594Z,101935.88
2022-12-18T17:20:39.563Z,101938.03
2022-12-18T17:25:43.097Z,101940.50
2022-12-18T17:30:46.493Z,101937.91
2022-12-18T17:35:51.559Z,101937.09
2022-12-18T17:40:54.997Z,101941.53
2022-12-18T17:45:58.510Z,101945.13
2022-12-18T17:51:05.733Z,101943.94
2022-12-18T17:56:11.297Z,101934.41
2022-12-18T18:01:16.224Z,101922.16
2022-12-18T18:06:21.178Z,101923.59
2022-12-18T18:11:43.280Z,101926.84
2022-12-18T18:16:48.814Z,101921.44
2022-12-18T18:21:54.628Z,101902.22
2022-12-18T18:26:59.469Z,101879.78
2022-12-18T18:32:03.226Z,101860.78
2022-12-18T18:37:08.261Z,101856.09
2022-12-18T18:42:11.862Z,101861.44
2022-12-18T18:47:15.266Z,101867.22
2022-12-18T18:52:20.026Z,101855.06
2022-12-18T18:57:27.456Z,101831.91
2022-12-18T19:02:33.576Z,101823.22
2022-12-18T19:07:38.451Z,101813.34
2022-12-18T19:12:59.759Z,101831.78
2022-12-18T19:18:03.284Z,101820.72
2022-12-18T19:23:08.131Z,101815.72
2022-12-18T19:28:14.419Z,101824.84
2022-12-18T19:33:42.360Z,101810.88
2022-12-18T19:38:48.016Z,101792.34
2022-12-18T19:43:52.218Z,101791.22
2022-12-18T19:48:55.671Z,101798.13
2022-12-18T19:54:01.981Z,101803.19
2022-12-18T19:59:05.779Z,101796.56
2022-12-18T20:04:09.369Z,101780.41
2022-12-18T20:09:14.312Z,101784.53
2022-12-18T20:14:22.703Z,101776.53
2022-12-18T20:19:27.792Z,101764.88
2022-12-18T20:24:32.845Z,101744.56
2022-12-18T20:29:36.376Z,101731.34
2022-12-18T20:34:39.762Z,101722.78
2022-12-18T20:39:45.680Z,101711.31
2022-12-18T20:44:49.788Z,101745.22
2022-12-18T20:49:53.160Z,101754.59
2022-12-18T20:54:58.602Z,101750.31
2022-12-18T21:00:04.325Z,101735.06
2022-12-18T21:05:08.891Z,101730.56
2022-12-18T21:10:13.708Z,101728.66
2022-12-18T21:15:17.226Z,101738.16
2022-12-18T21:20:20.725Z,101723.25
2022-12-18T21:25:25.736Z,101726.00
2022-12-18T21:30:29.182Z,101718.84
2022-12-18T21:35:32.657Z,101716.44
2022-12-18T21:40:39.923Z,101739.13
2022-12-18T21:45:43.625Z,101735.47
2022-12-18T21:50:47.099Z,101742.97
2022-12-18T21:55:58.648Z,101731.00
2022-12-18T22:01:02.198Z,101725.28
2022-12-18T22:06:09.632Z,101716.06
2022-12-18T22:11:14.739Z,101695.13
2022-12-18T22:16:19.749Z,101698.59
2022-12-18T22:21:29.071Z,101698.00
2022-12-18T22:26:39.999Z,101672.00
2022-12-18T22:31:44.168Z,101678.16
2022-12-18T22:36:48.773Z,101682.81
2022-12-18T22:41:53.640Z,101687.56
2022-12-18T22:47:05.510Z,101678.09
2022-12-18T22:52:10.705Z,101670.72
2022-12-18T22:57:15.555Z,101657.91
2022-12-18T23:02:19.928Z,101642.09
2022-12-18T23:07:23.629Z,101647.84
2022-12-18T23:12:28.532Z,101633.78
2022-12-18T23:17:32.333Z,101638.19
2022-12-18T23:22:35.883Z,101642.84
2022-12-18T23:27:40.721Z,101637.66
2022-12-18T23:32:44.142Z,101633.72
2022-12-18T23:38:03.936Z,101635.53
2022-12-18T23:43:09.037Z,101620.44
2022-12-18T23:48:12.652Z,101621.63
2022-12-18T23:53:16.189Z,101609.78
2022-12-18T23:58:22.353Z,101602.66
